Time;durP1;ratioP1;P1;durP2;ratioP2;P2;SDS_P1;SDS_P2;PMS_P1;PMS_P2;Temp;Humidity;BMP_temperature;BMP_pressure;BME280_temperature;BME280_humidity;BME280_pressure;Samples;Min_cycle;Max_cycle;Signal;HPM_P1;HPM_P2
2022/09/27 00:00:58;;;;;;;8.09;7.44;;;;;;;14.29;75.44;100475.13;454424;116;922588;-78
2022/09/27 00:02:02;;;;;;;8.07;7.48;;;;;;;14.29;75.41;100477.87;454183;116;922559;-78
2022/09/27 00:03:05;;;;;;;8.06;7.44;;;;;;;14.29;75.51;100475.13;449286;118;922754;-78
2022/09/27 00:04:11;;;;;;;7.59;7.01;;;;;;;14.30;75.66;100479.55;446256;119;922579;-78
2022/09/27 00:05:14;;;;;;;7.93;7.42;;;;;;;14.30;75.62;100472.16;454150;116;923114;-78
2022/09/27 00:06:28;;;;;;;7.75;7.19;;;;;;;14.31;75.66;100473.83;454305;116;922520;-78
2022/09/27 00:07:31;;;;;;;8.13;7.52;;;;;;;14.32;75.55;100467.27;449206;118;923087;-78
2022/09/27 00:08:35;;;;;;;8.22;7.64;;;;;;;14.33;75.61;100476.34;446182;119;922522;-78
2022/09/27 00:09:38;;;;;;;8.07;7.37;;;;;;;14.34;75.65;100475.23;454336;116;922566;-77
2022/09/27 00:10:41;;;;;;;7.16;6.53;;;;;;;14.36;75.66;100473.09;454406;116;922631;-78
2022/09/27 00:11:46;;;;;;;7.46;6.93;;;;;;;14.37;75.68;100475.64;454343;116;922504;-78
2022/09/27 00:12:49;;;;;;;7.09;6.59;;;;;;;14.39;75.63;100467.17;454259;116;922530;-78
2022/09/27 00:13:57;;;;;;;7.63;6.77;;;;;;;14.39;75.69;100470.72;454426;116;922976;-77
2022/09/27 00:15:01;;;;;;;7.30;6.80;;;;;;;14.40;75.52;100457.84;454158;116;923004;-78
2022/09/27 00:16:04;;;;;;;7.58;6.92;;;;;;;14.40;75.47;100464.16;450607;116;922506;-78
2022/09/27 00:17:08;;;;;;;7.12;6.62;;;;;;;14.40;75.44;100457.84;441334;120;930571;-78
2022/09/27 00:18:11;;;;;;;7.95;7.28;;;;;;;14.40;75.42;100464.16;441390;120;922543;-78
2022/09/27 00:19:17;;;;;;;7.40;6.69;;;;;;;14.40;75.42;100461.42;441496;120;922516;-78
2022/09/27 00:20:21;;;;;;;7.38;6.79;;;;;;;14.41;75.47;100463.09;441222;120;922995;-78
2022/09/27 00:21:24;;;;;;;6.24;5.71;;;;;;;14.42;75.42;100462.02;441408;120;922614;-78
2022/09/27 00:22:28;;;;;;;7.26;6.74;;;;;;;14.42;75.37;100467.51;441537;120;922541;-78
2022/09/27 00:23:31;;;;;;;6.96;6.32;;;;;;;14.42;75.34;100458.44;441535;120;923228;-78
2022/09/27 00:24:34;;;;;;;7.01;6.47;;;;;;;14.42;75.29;100461.19;441407;120;923138;-77
2022/09/27 00:25:38;;;;;;;6.61;6.10;;;;;;;14.40;75.30;100461.42;441453;120;930494;-78
2022/09/27 00:26:41;;;;;;;6.78;5.99;;;;;;;14.40;75.30;100452.36;441528;120;922679;-78
2022/09/27 00:27:44;;;;;;;6.94;6.35;;;;;;;14.40;75.38;100466.91;432101;122;922811;-77
2022/09/27 00:28:47;;;;;;;6.14;5.61;;;;;;;14.39;75.34;100462.48;438937;118;922651;-79
2022/09/27 00:29:51;;;;;;;7.41;6.73;;;;;;;14.40;75.40;100463.33;448861;116;922977;-77
2022/09/27 00:30:55;;;;;;;6.06;5.52;;;;;;;14.39;75.28;100456.20;450002;118;923013;-79
2022/09/27 00:31:58;;;;;;;6.48;5.98;;;;;;;14.38;75.31;100457.27;450094;118;923073;-77
2022/09/27 00:33:01;;;;;;;6.60;5.90;;;;;;;14.37;75.18;100459.17;450111;118;922566;-78
2022/09/27 00:34:06;;;;;;;6.09;5.49;;;;;;;14.36;75.21;100456.64;445341;118;922696;-78
2022/09/27 00:35:09;;;;;;;6.01;5.46;;;;;;;14.35;75.23;100452.22;441295;120;922540;-78
2022/09/27 00:36:13;;;;;;;5.33;4.95;;;;;;;14.33;75.18;100455.23;450122;118;922564;-77
2022/09/27 00:37:15;;;;;;;5.21;4.80;;;;;;;;;;450120;118;930610;-78
2022/09/27 00:38:18;;;;;;;5.06;4.73;;;;;;;14.31;75.25;100448.30;450199;118;923061;-78
2022/09/27 00:39:22;;;;;;;5.92;5.42;;;;;;;14.29;75.11;100454.02;441833;120;930523;-78
2022/09/27 00:40:25;;;;;;;6.17;5.75;;;;;;;14.28;75.08;100455.09;450184;116;922613;-77
2022/09/27 00:41:34;;;;;;;6.97;6.34;;;;;;;14.27;75.15;100447.97;450228;118;922635;-78
2022/09/27 00:42:37;;;;;;;6.54;5.98;;;;;;;14.27;75.17;100455.36;441716;120;922610;-78
2022/09/27 00:43:52;;;;;;;5.82;5.32;;;;;;;14.26;75.25;100453.69;450182;118;922839;-75
2022/09/27 00:44:59;;;;;;;5.62;5.10;;;;;;;14.26;75.37;100451.78;441738;120;922575;-80
2022/09/27 00:46:03;;;;;;;5.72;5.23;;;;;;;14.26;75.37;100449.03;449949;118;923153;-79
2022/09/27 00:47:28;;;;;;;5.68;5.23;;;;;;;14.26;75.49;100449.03;441865;120;923034;-78
2022/09/27 00:48:34;;;;;;;5.74;5.14;;;;;;;14.29;75.58;100450.45;441338;120;922568;-78
2022/09/27 00:49:40;;;;;;;5.66;5.26;;;;;;;14.30;75.62;100452.12;440867;120;922867;-78
2022/09/27 00:50:47;;;;;;;5.61;5.17;;;;;;;14.31;75.72;100451.05;442306;120;923046;-77
2022/09/27 00:51:54;;;;;;;6.26;5.71;;;;;;;14.32;75.67;100456.30;446512;118;922629;-75
2022/09/27 00:53:04;;;;;;;6.07;5.58;;;;;;;14.34;75.67;100453.29;446456;118;922608;-78
2022/09/27 00:54:10;;;;;;;5.81;5.31;;;;;;;14.36;75.69;100448.41;449849;117;922444;-76
2022/09/27 00:55:17;;;;;;;6.53;5.21;;;;;;;14.36;75.67;100451.98;449953;118;923248;-77
2022/09/27 00:56:24;;;;;;;5.97;5.31;;;;;;;14.37;75.69;100448.20;449943;118;922871;-78
2022/09/27 00:57:27;;;;;;;5.69;5.29;;;;;;;14.38;75.66;100440.81;449983;118;922585;-77
2022/09/27 00:58:37;;;;;;;5.90;5.38;;;;;;;14.39;75.77;100445.23;450074;118;923154;-77
2022/09/27 00:59:44;;;;;;;6.07;5.49;;;;;;;14.40;75.73;100444.96;448799;117;930564;-77
2022/09/27 01:00:51;;;;;;;5.83;5.35;;;;;;;14.41;75.70;100443.89;448487;118;922832;-77
2022/09/27 01:01:54;;;;;;;5.78;4.99;;;;;;;14.43;75.77;100447.23;457084;116;922969;-78
2022/09/27 01:02:59;;;;;;;5.84;5.31;;;;;;;14.44;75.61;100439.84;457207;116;922567;-77
2022/09/27 01:04:11;;;;;;;6.06;5.06;;;;;;;14.43;75.63;100444.49;457220;116;922737;-77
2022/09/27 01:05:18;;;;;;;5.57;5.13;;;;;;;14.43;75.55;100439.01;447737;118;922597;-77
2022/09/27 01:06:21;;;;;;;5.14;4.80;;;;;;;14.43;75.56;100435.42;448573;116;923096;-77
2022/09/27 01:07:24;;;;;;;5.64;5.15;;;;;;;14.42;75.55;100434.59;457210;116;923177;-78
2022/09/27 01:08:28;;;;;;;5.75;5.30;;;;;;;14.41;75.59;100432.92;457225;116;922609;-77
2022/09/27 01:09:32;;;;;;;5.58;5.09;;;;;;;14.41;75.58;100432.09;457197;116;922894;-77
2022/09/27 01:10:39;;;;;;;5.24;4.84;;;;;;;14.41;75.59;100423.85;457013;116;922520;-77
2022/09/27 01:11:49;;;;;;;5.39;4.99;;;;;;;14.39;75.58;100424.09;456486;116;922590;-77
2022/09/27 01:13:07;;;;;;;6.71;5.03;;;;;;;14.40;75.70;100422.19;457075;116;922527;-77
2022/09/27 01:14:33;;;;;;;5.62;5.13;;;;;;;14.39;75.61;100423.28;456676;116;922610;-76
2022/09/27 01:15:42;;;;;;;5.83;5.33;;;;;;;14.37;75.59;100422.69;458382;114;922568;-77
2022/09/27 01:16:49;;;;;;;5.34;4.91;;;;;;;14.35;75.67;100422.05;461861;114;922982;-77
2022/09/27 01:18:12;;;;;;;5.39;4.94;;;;;;;14.33;75.66;100414.09;452556;117;923269;-77
2022/09/27 01:19:28;;;;;;;5.94;5.43;;;;;;;14.32;75.70;100417.91;460526;114;922566;-77
2022/09/27 01:20:58;;;;;;;5.44;4.93;;;;;;;14.32;75.73;100414.32;461622;114;922871;-79
2022/09/27 01:22:23;;;;;;;5.71;5.22;;;;;;;14.30;75.79;100414.55;460154;114;922889;-79
2022/09/27 01:23:30;;;;;;;5.19;4.76;;;;;;;14.28;75.83;100416.70;461546;115;922981;-78
2022/09/27 01:25:01;;;;;;;5.78;4.39;;;;;;;14.27;75.83;100414.22;460816;115;922702;-78
2022/09/27 01:26:06;;;;;;;;;;;;;;;14.26;75.93;100412.55;466326;114;922048;-78
2022/09/27 01:27:15;;;;;;;5.82;4.90;;;;;;;14.24;75.98;100411.95;465248;114;922482;-78
2022/09/27 01:28:34;;;;;;;4.64;4.24;;;;;;;14.22;76.03;100405.89;462506;114;927180;-78
2022/09/27 01:29:57;;;;;;;4.83;4.43;;;;;;;14.18;76.10;100405.52;462017;114;922813;-78
2022/09/27 01:31:07;;;;;;;4.71;4.39;;;;;;;14.16;76.17;100416.76;460292;114;922702;-77
2022/09/27 01:32:19;;;;;;;5.21;4.81;;;;;;;14.16;76.33;100410.44;455603;116;922685;-78
2022/09/27 01:33:46;;;;;;;6.75;4.89;;;;;;;14.27;76.39;100406.83;482378;110;947207;-76
2022/09/27 01:35:01;;;;;;;4.84;4.43;;;;;;;14.16;76.40;100399.47;453254;115;923307;-77
2022/09/27 01:36:20;;;;;;;4.93;4.04;;;;;;;14.17;76.45;100403.85;468130;113;922730;-77
2022/09/27 01:37:36;;;;;;;5.32;4.86;;;;;;;14.17;76.51;100401.95;465262;113;922622;-77
2022/09/27 01:38:43;;;;;;;4.57;4.17;;;;;;;14.19;76.50;100404.45;446259;118;923335;-77
2022/09/27 01:39:56;;;;;;;4.91;4.36;;;;;;;14.21;76.51;100405.05;458082;115;923085;-77
2022/09/27 01:41:28;;;;;;;5.80;4.47;;;;;;;14.22;76.55;100403.98;460082;114;922938;-77
2022/09/27 01:43:11;;;;;;;6.41;5.12;;;;;;;14.23;76.55;100402.88;464830;114;922557;-77
2022/09/27 01:44:28;;;;;;;5.20;4.55;;;;;;;14.24;76.54;100400.98;464916;114;923037;-77
2022/09/27 01:45:39;;;;;;;5.53;4.99;;;;;;;14.25;76.57;100400.74;464028;114;922555;-77
2022/09/27 01:46:53;;;;;;;5.91;5.34;;;;;;;14.24;76.54;100403.72;464412;114;923057;-77
2022/09/27 01:48:17;;;;;;;5.64;4.91;;;;;;;14.23;76.46;100402.05;446625;118;923351;-77
2022/09/27 01:49:34;;;;;;;8.03;4.88;;;;;;;14.22;76.44;100395.77;445512;118;923273;-76
2022/09/27 01:50:44;;;;;;;6.31;5.21;;;;;;;14.22;76.47;100405.89;463733;114;922587;-77
2022/09/27 01:51:50;;;;;;;5.01;4.67;;;;;;;14.21;76.52;100399.57;464924;114;923151;-77
2022/09/27 01:53:06;;;;;;;5.13;4.49;;;;;;;14.21;76.56;100396.83;464863;114;922547;-77
2022/09/27 01:54:15;;;;;;;5.09;4.62;;;;;;;14.23;76.57;100399.30;463657;114;923402;-77
2022/09/27 01:55:32;;;;;;;5.27;4.77;;;;;;;14.23;76.64;100391.08;464902;114;922981;-77
2022/09/27 01:56:50;;;;;;;5.04;4.64;;;;;;;14.23;76.60;100388.34;447459;118;923309;-78
2022/09/27 01:58:02;;;;;;;5.29;4.89;;;;;;;14.22;76.57;100384.79;461109;114;923002;-77
2022/09/27 01:59:08;;;;;;;5.46;5.06;;;;;;;14.22;76.54;100379.30;465002;114;922469;-77
2022/09/27 02:00:13;;;;;;;4.73;4.33;;;;;;;14.23;76.54;100386.43;455680;114;922540;-77
2022/09/27 02:01:20;;;;;;;5.03;4.61;;;;;;;14.23;76.51;100388.34;463916;114;923177;-77
2022/09/27 02:02:27;;;;;;;5.47;4.96;;;;;;;14.23;76.48;100385.59;449145;117;922949;-77
2022/09/27 02:03:53;;;;;;;4.52;4.18;;;;;;;14.22;76.42;100383.95;445180;118;923296;-77
2022/09/27 02:05:16;;;;;;;4.85;4.27;;;;;;;14.21;76.49;100380.38;449791;117;923393;-77
2022/09/27 02:06:24;;;;;;;4.82;4.34;;;;;;;14.20;76.57;100376.80;449809;118;923230;-77
2022/09/27 02:07:45;;;;;;;4.46;4.09;;;;;;;14.20;76.56;100376.80;430736;118;923613;-77
2022/09/27 02:09:06;;;;;;;4.51;4.00;;;;;;;14.20;76.59;100373.22;449709;118;923363;-78
2022/09/27 02:10:24;;;;;;;6.01;5.42;;;;;;;14.20;76.63;100387.77;462851;114;922629;-77
2022/09/27 02:11:30;;;;;;;5.97;5.39;;;;;;;14.20;76.63;100384.19;464955;114;922639;-76
2022/09/27 02:12:39;;;;;;;5.81;5.04;;;;;;;14.19;76.64;100379.77;455283;116;923223;-78
2022/09/27 02:13:47;;;;;;;5.14;4.65;;;;;;;14.19;76.61;100388.84;455472;115;922901;-77
2022/09/27 02:15:03;;;;;;;5.66;4.51;;;;;;;14.19;76.73;100374.29;450783;114;923365;-76
2022/09/27 02:16:18;;;;;;;6.11;4.47;;;;;;;14.19;76.71;100374.29;462951;114;922547;-77
2022/09/27 02:17:28;;;;;;;5.38;4.86;;;;;;;14.19;76.71;100374.29;464911;114;922561;-77
2022/09/27 02:18:54;;;;;;;5.12;4.67;;;;;;;14.19;76.72;100375.13;455656;116;923283;-77
2022/09/27 02:20:04;;;;;;;5.16;4.64;;;;;;;14.19;76.80;100380.61;459346;114;922874;-76
2022/09/27 02:21:12;;;;;;;4.89;4.35;;;;;;;14.21;76.85;100377.63;463866;114;923030;-77
2022/09/27 02:22:36;;;;;;;5.08;4.21;;;;;;;14.22;76.88;100379.30;464964;113;922625;-77
2022/09/27 02:23:49;;;;;;;5.29;4.63;;;;;;;14.24;76.99;100379.87;464907;114;923092;-77
2022/09/27 02:24:59;;;;;;;7.79;5.57;;;;;;;14.25;76.94;100373.32;464925;114;922538;-77
2022/09/27 02:26:09;;;;;;;6.78;5.41;;;;;;;14.25;76.96;100373.32;463744;114;922538;-77
2022/09/27 02:27:16;;;;;;;6.87;5.07;;;;;;;14.26;76.93;100374.98;464902;114;922594;-77
2022/09/27 02:28:25;;;;;;;5.98;5.48;;;;;;;14.26;76.88;100374.98;464940;114;922725;-77
2022/09/27 02:29:35;;;;;;;5.94;5.38;;;;;;;14.27;76.85;100370.34;464920;114;922949;-77
2022/09/27 02:30:39;;;;;;;6.58;5.33;;;;;;;14.27;76.90;100371.17;465280;114;922600;-76
2022/09/27 02:31:54;;;;;;;6.39;5.52;;;;;;;14.29;76.87;100376.39;464444;114;922864;-77
2022/09/27 02:32:57;;;;;;;5.66;5.12;;;;;;;14.28;76.94;100375.56;464029;113;922616;-77
2022/09/27 02:34:10;;;;;;;8.10;6.94;;;;;;;14.29;76.80;100377.23;460028;115;923158;-77
2022/09/27 02:35:23;;;;;;;7.68;5.47;;;;;;;14.30;76.82;100383.55;456137;116;923525;-77
2022/09/27 02:36:26;;;;;;;11.32;5.39;;;;;;;14.30;76.81;100372.58;456536;116;922649;-76
2022/09/27 02:37:29;;;;;;;5.85;5.33;;;;;;;14.30;76.86;100378.06;457570;116;922966;-77
2022/09/27 02:38:33;;;;;;;5.83;5.01;;;;;;;14.30;76.86;100370.67;457458;116;922512;-77
2022/09/27 02:39:36;;;;;;;5.55;5.01;;;;;;;14.30;76.96;100370.67;457402;116;930921;-77
2022/09/27 02:40:44;;;;;;;6.99;4.92;;;;;;;14.31;76.85;100358.63;457357;116;923135;-77
2022/09/27 02:41:47;;;;;;;6.73;5.02;;;;;;;14.32;76.84;100370.44;457331;116;922955;-77
2022/09/27 02:42:51;;;;;;;6.72;4.96;;;;;;;14.32;76.95;100362.21;457594;116;923120;-77
2022/09/27 02:44:00;;;;;;;10.19;5.54;;;;;;;14.34;76.88;100363.61;457489;116;922542;-77
2022/09/27 02:45:06;;;;;;;4.89;4.39;;;;;;;14.35;76.87;100361.70;456963;116;923028;-77
2022/09/27 02:46:25;;;;;;;5.87;4.84;;;;;;;14.35;76.85;100359.80;457275;116;930601;-78
2022/09/27 02:47:52;;;;;;;6.29;4.18;;;;;;;14.35;76.88;100357.06;457309;116;922476;-78
2022/09/27 02:49:05;;;;;;;5.27;4.68;;;;;;;14.36;76.81;100355.15;456814;116;922989;-77
2022/09/27 02:50:45;;;;;;;6.15;4.34;;;;;;;14.36;76.80;100355.15;457278;116;922972;-77
2022/09/27 02:51:57;;;;;;;4.89;4.44;;;;;;;14.35;76.84;100348.00;447109;116;922535;-76
2022/09/27 02:53:15;;;;;;;4.10;3.69;;;;;;;14.34;76.92;100343.58;456214;116;922879;-76
2022/09/27 02:54:27;;;;;;;5.68;4.58;;;;;;;14.33;76.84;100347.42;456437;116;923036;-77
2022/09/27 02:55:48;;;;;;;4.94;3.99;;;;;;;14.33;76.93;100348.27;457067;116;930526;-77
2022/09/27 02:57:25;;;;;;;6.26;4.15;;;;;;;14.32;76.96;100349.33;418529;126;923283;-77
2022/09/27 02:59:07;;;;;;;5.34;4.80;;;;;;;14.32;76.97;100341.11;457246;116;922716;-77
2022/09/27 03:00:25;;;;;;;5.08;4.41;;;;;;;14.31;77.00;100339.44;430631;123;922846;-77
2022/09/27 03:01:45;;;;;;;5.01;4.53;;;;;;;14.30;77.06;100331.44;428351;123;922771;-77
2022/09/27 03:03:31;;;;;;;5.88;4.41;;;;;;;14.39;77.08;100341.80;477035;110;946940;-75
2022/09/27 03:04:56;;;;;;;5.07;4.05;;;;;;;14.29;77.06;100343.48;465300;114;922495;-76
2022/09/27 03:06:06;;;;;;;5.44;3.44;;;;;;;14.27;77.04;100342.92;457353;116;923115;-76
2022/09/27 03:07:13;;;;;;;4.91;3.46;;;;;;;14.25;77.03;100345.89;457072;116;922624;-76
2022/09/27 03:08:17;;;;;;;4.21;3.81;;;;;;;14.23;77.08;100348.04;457225;116;923224;-77
2022/09/27 03:09:23;;;;;;;7.58;4.18;;;;;;;14.23;77.08;100347.20;457296;115;922462;-76
2022/09/27 03:10:28;;;;;;;4.82;4.29;;;;;;;14.22;77.12;100346.40;457223;116;922528;-77
2022/09/27 03:11:32;;;;;;;5.24;4.05;;;;;;;14.21;77.07;100347.47;457374;116;923009;-76
2022/09/27 03:12:35;;;;;;;5.69;4.46;;;;;;;14.22;77.11;100345.56;457324;115;922691;-76
2022/09/27 03:13:39;;;;;;;5.08;4.47;;;;;;;14.21;77.14;100344.73;457382;116;930533;-76
2022/09/27 03:14:44;;;;;;;5.78;3.84;;;;;;;14.22;77.13;100349.14;454996;116;922515;-76
2022/09/27 03:15:49;;;;;;;5.89;4.00;;;;;;;14.23;77.12;100344.45;454992;116;923086;-77
2022/09/27 03:16:56;;;;;;;5.59;4.17;;;;;;;14.23;77.14;100341.72;454858;116;922478;-76
2022/09/27 03:18:02;;;;;;;5.18;4.59;;;;;;;14.23;77.13;100344.45;454908;116;922842;-76
2022/09/27 03:19:19;;;;;;;4.42;4.02;;;;;;;14.22;77.12;100340.91;450163;116;923073;-76
2022/09/27 03:20:40;;;;;;;4.35;3.95;;;;;;;14.21;77.15;100328.27;449386;118;922578;-76
2022/09/27 03:21:45;;;;;;;4.50;3.71;;;;;;;14.21;77.17;100341.98;449448;117;923487;-76
2022/09/27 03:22:48;;;;;;;4.22;3.48;;;;;;;14.19;77.19;100336.73;449618;117;923110;-76
2022/09/27 03:23:52;;;;;;;4.47;3.83;;;;;;;14.20;77.22;100334.83;440665;119;922689;-76
2022/09/27 03:24:55;;;;;;;4.83;4.22;;;;;;;14.20;77.19;100332.09;440708;118;922609;-78
2022/09/27 03:25:58;;;;;;;5.33;3.84;;;;;;;14.19;77.20;100333.99;448041;118;922594;-77
2022/09/27 03:27:02;;;;;;;3.94;3.58;;;;;;;14.19;77.18;100333.16;449518;118;924557;-77
2022/09/27 03:28:05;;;;;;;2.90;2.67;;;;;;;14.19;77.11;100330.42;449544;118;923024;-77
2022/09/27 03:29:10;;;;;;;4.49;3.17;;;;;;;14.17;77.14;100333.39;449454;118;930456;-77
2022/09/27 03:30:14;;;;;;;5.52;3.14;;;;;;;14.18;77.29;100336.97;444351;119;922647;-77
2022/09/27 03:31:17;;;;;;;5.04;3.40;;;;;;;14.18;77.18;100334.23;447626;116;930593;-76
2022/09/27 03:32:23;;;;;;;4.94;3.32;;;;;;;14.18;77.18;100328.75;456438;115;927240;-77
2022/09/27 03:33:28;;;;;;;4.49;4.02;;;;;;;14.18;77.23;100326.00;454924;116;922983;-77
2022/09/27 03:34:32;;;;;;;4.41;3.21;;;;;;;14.18;77.21;100328.75;457249;115;923023;-77
2022/09/27 03:35:36;;;;;;;3.78;3.29;;;;;;;14.17;77.31;100327.91;457440;116;922897;-78
2022/09/27 03:36:39;;;;;;;4.08;3.77;;;;;;;14.19;77.31;100324.94;457382;115;922670;-77
2022/09/27 03:37:42;;;;;;;3.72;3.24;;;;;;;14.18;77.26;100326.84;457516;115;922546;-77
2022/09/27 03:38:45;;;;;;;4.54;3.24;;;;;;;14.18;77.28;100321.36;457443;116;922527;-77
2022/09/27 03:39:50;;;;;;;3.52;3.19;;;;;;;14.19;77.24;100323.03;457089;115;923094;-77
2022/09/27 03:40:54;;;;;;;4.66;2.95;;;;;;;14.18;77.26;100318.61;457445;116;922779;-77
2022/09/27 03:41:57;;;;;;;3.40;2.82;;;;;;;14.19;77.29;100319.45;457491;115;923169;-76
2022/09/27 03:43:00;;;;;;;3.47;2.94;;;;;;;14.20;77.33;100315.63;457447;116;923373;-77
2022/09/27 03:44:03;;;;;;;4.61;3.15;;;;;;;14.20;77.40;100318.37;450516;117;922648;-77
2022/09/27 03:45:07;;;;;;;3.45;3.15;;;;;;;14.21;77.31;100309.08;450681;116;922932;-77
2022/09/27 03:46:10;;;;;;;2.92;2.61;;;;;;;14.22;77.46;100318.98;450406;117;922573;-77
2022/09/27 03:47:14;;;;;;;2.55;2.31;;;;;;;14.23;77.38;100326.09;450702;116;923106;-77
2022/09/27 03:48:17;;;;;;;2.75;2.12;;;;;;;14.23;77.35;100319.78;457483;116;930743;-77
2022/09/27 03:49:20;;;;;;;3.05;2.77;;;;;;;14.23;77.36;100320.62;457556;115;923086;-77
2022/09/27 03:50:24;;;;;;;2.76;2.28;;;;;;;14.23;77.38;100317.03;457553;115;923027;-77
2022/09/27 03:51:28;;;;;;;3.39;2.18;;;;;;;14.23;77.44;100320.62;457443;115;922941;-77
2022/09/27 03:52:31;;;;;;;2.61;2.23;;;;;;;14.23;77.44;100323.36;456354;116;922445;-77
2022/09/27 03:53:34;;;;;;;2.69;2.17;;;;;;;14.24;77.42;100318.71;455830;116;922830;-77
2022/09/27 03:54:38;;;;;;;4.18;2.32;;;;;;;14.25;77.42;100323.12;455736;116;922874;-77
2022/09/27 03:55:46;;;;;;;3.46;2.81;;;;;;;14.25;77.50;100323.95;455680;116;922506;-77
2022/09/27 03:56:51;;;;;;;3.01;2.43;;;;;;;14.25;77.49;100328.61;455513;116;930508;-77
2022/09/27 03:57:54;;;;;;;2.95;2.61;;;;;;;14.25;77.51;100328.61;449088;117;922578;-77
2022/09/27 03:58:57;;;;;;;2.72;2.52;;;;;;;14.26;77.59;100324.80;449448;116;930652;-76
2022/09/27 04:00:04;;;;;;;4.56;2.41;;;;;;;14.27;77.51;100329.20;455671;116;922606;-76
2022/09/27 04:01:17;;;;;;;2.62;2.39;;;;;;;14.28;77.57;100328.13;455603;116;923090;-76
2022/09/27 04:02:21;;;;;;;2.55;2.35;;;;;;;14.28;77.58;100323.45;455653;116;923022;-77
2022/09/27 04:03:32;;;;;;;3.71;2.63;;;;;;;14.29;77.61;100325.13;430934;122;923044;-77
2022/09/27 04:04:53;;;;;;;2.99;2.48;;;;;;;14.32;77.71;100321.07;440007;120;923108;-77
2022/09/27 04:05:59;;;;;;;3.82;2.91;;;;;;;14.32;77.63;100327.39;446441;118;923541;-77
2022/09/27 04:07:03;;;;;;;2.76;2.40;;;;;;;14.33;77.64;100328.23;446231;116;922748;-77
2022/09/27 04:08:06;;;;;;;3.19;2.54;;;;;;;14.34;77.69;100325.22;455732;116;922639;-75
2022/09/27 04:09:09;;;;;;;3.80;2.54;;;;;;;14.36;77.57;100330.47;455692;116;922639;-77
2022/09/27 04:10:24;;;;;;;3.96;2.32;;;;;;;14.37;77.57;100321.20;454757;116;923530;-77
2022/09/27 04:11:27;;;;;;;2.37;2.17;;;;;;;14.38;77.53;100312.73;455664;116;922973;-76
2022/09/27 04:12:31;;;;;;;8.17;2.78;;;;;;;14.39;77.51;100310.83;455750;116;922880;-76
2022/09/27 04:13:35;;;;;;;3.44;2.71;;;;;;;14.40;77.48;100302.33;455693;116;923017;-77
2022/09/27 04:14:38;;;;;;;2.96;2.56;;;;;;;14.40;77.48;100305.06;455747;116;922360;-77
2022/09/27 04:15:43;;;;;;;3.79;2.67;;;;;;;14.41;77.47;100303.16;452585;116;922707;-75
2022/09/27 04:17:04;;;;;;;4.52;3.08;;;;;;;14.43;77.45;100298.27;453998;117;922600;-75
2022/09/27 04:18:21;;;;;;;3.21;2.77;;;;;;;14.45;77.46;100296.09;450723;117;922919;-77
2022/09/27 04:19:26;;;;;;;3.63;2.47;;;;;;;14.47;77.45;100294.78;442572;117;922895;-78
2022/09/27 04:20:31;;;;;;;3.53;2.84;;;;;;;14.48;77.40;100299.19;452607;117;922544;-76
2022/09/27 04:21:35;;;;;;;3.13;2.80;;;;;;;14.49;77.43;100287.14;453957;117;923376;-77
2022/09/27 04:22:40;;;;;;;3.43;2.52;;;;;;;14.50;77.32;100290.73;445177;119;930493;-77
2022/09/27 04:23:43;;;;;;;3.56;2.67;;;;;;;14.50;77.27;100282.49;445758;117;922623;-77
2022/09/27 04:24:49;;;;;;;3.34;3.01;;;;;;;14.50;77.33;100282.49;453898;117;922531;-77
2022/09/27 04:25:56;;;;;;;3.84;2.95;;;;;;;14.50;77.16;100274.27;453382;117;923084;-77
2022/09/27 04:27:18;;;;;;;3.62;2.61;;;;;;;14.50;77.20;100271.52;453986;117;922588;-77
2022/09/27 04:28:23;;;;;;;4.50;3.03;;;;;;;14.50;77.20;100269.58;453734;117;923013;-77
2022/09/27 04:29:27;;;;;;;3.97;2.94;;;;;;;14.51;77.19;100270.41;454082;117;922809;-77
2022/09/27 04:30:30;;;;;;;3.07;2.77;;;;;;;14.50;77.17;100264.09;453214;117;923010;-76
2022/09/27 04:31:38;;;;;;;4.64;2.98;;;;;;;14.51;77.18;100273.99;453568;117;923126;-77
2022/09/27 04:32:58;;;;;;;4.90;3.06;;;;;;;14.52;77.11;100272.09;436307;121;922926;-77
2022/09/27 04:34:15;;;;;;;4.86;3.22;;;;;;;14.51;77.07;100273.99;436082;120;923218;-76
2022/09/27 04:36:40;;;;;;;3.51;3.21;;;;;;;14.49;77.21;100273.43;457231;116;922560;-77
2022/09/27 04:37:45;;;;;;;3.76;3.47;;;;;;;14.49;77.18;100269.85;456768;115;923005;-76
2022/09/27 04:38:48;;;;;;;4.73;3.36;;;;;;;14.49;77.19;100264.36;457303;116;922904;-76
2022/09/27 04:39:53;;;;;;;5.32;2.86;;;;;;;14.48;77.35;100269.02;457039;115;930599;-77
2022/09/27 04:40:57;;;;;;;6.01;3.19;;;;;;;14.50;77.29;100263.30;457430;116;923061;-77
2022/09/27 04:42:01;;;;;;;4.75;3.01;;;;;;;14.51;77.37;100265.77;457377;115;922822;-76
2022/09/27 04:43:04;;;;;;;4.14;3.32;;;;;;;14.54;77.32;100259.80;450370;117;922646;-77
2022/09/27 04:44:07;;;;;;;3.86;2.93;;;;;;;14.54;77.38;100262.55;450733;116;923139;-77
2022/09/27 04:45:12;;;;;;;3.35;3.06;;;;;;;14.57;77.38;100264.77;457398;116;922464;-76
2022/09/27 04:46:15;;;;;;;3.86;3.52;;;;;;;14.59;77.37;100265.37;457194;116;922533;-77
2022/09/27 04:47:20;;;;;;;5.79;3.87;;;;;;;14.63;77.41;100273.09;457290;116;923027;-76
2022/09/27 04:48:23;;;;;;;4.91;3.94;;;;;;;14.66;77.53;100278.09;457207;116;930341;-77
2022/09/27 04:49:26;;;;;;;4.39;3.99;;;;;;;14.68;77.39;100275.91;457381;115;922992;-76
2022/09/27 04:50:31;;;;;;;4.20;3.81;;;;;;;14.69;77.41;100278.42;457293;116;922666;-77
2022/09/27 04:51:39;;;;;;;3.63;3.32;;;;;;;14.71;77.37;100265.30;457188;116;923453;-77
2022/09/27 04:52:43;;;;;;;3.54;3.24;;;;;;;14.73;77.39;100265.85;450800;115;922767;-76
2022/09/27 04:53:46;;;;;;;4.23;3.77;;;;;;;14.76;77.36;100270.86;449472;118;922562;-77
2022/09/27 04:54:50;;;;;;;4.24;3.89;;;;;;;14.78;77.37;100263.19;449390;117;930499;-77
2022/09/27 04:55:53;;;;;;;4.77;3.32;;;;;;;14.82;77.28;100266.28;440441;119;923100;-77
2022/09/27 04:56:56;;;;;;;3.94;3.10;;;;;;;14.84;77.38;100267.68;440771;118;922531;-79
2022/09/27 04:58:00;;;;;;;4.59;3.56;;;;;;;14.88;77.29;100263.38;449529;118;923017;-77
2022/09/27 04:59:03;;;;;;;4.26;3.86;;;;;;;14.91;77.21;100268.35;449466;117;923828;-77
2022/09/27 05:00:10;;;;;;;5.24;3.36;;;;;;;14.94;77.19;100265.09;448721;117;922534;-76
2022/09/27 05:01:13;;;;;;;3.76;3.37;;;;;;;14.98;77.23;100259.95;449373;117;923008;-77
2022/09/27 05:02:36;;;;;;;4.37;3.46;;;;;;;15.00;77.22;100258.59;448187;117;923024;-77
2022/09/27 05:03:58;;;;;;;3.66;3.32;;;;;;;15.07;77.23;100258.42;449380;118;923019;-77
2022/09/27 05:05:02;;;;;;;3.40;3.01;;;;;;;15.10;77.28;100263.44;449444;117;923068;-76
2022/09/27 05:06:08;;;;;;;4.51;3.51;;;;;;;15.14;77.35;100261.84;449018;117;923016;-76
2022/09/27 05:07:11;;;;;;;4.05;3.31;;;;;;;15.16;77.23;100267.89;449503;118;923055;-77
2022/09/27 05:08:16;;;;;;;3.61;3.31;;;;;;;15.20;77.22;100266.32;448947;117;923073;-77
2022/09/27 05:09:23;;;;;;;3.90;3.36;;;;;;;15.22;77.08;100257.80;445006;118;923141;-77
2022/09/27 05:10:28;;;;;;;3.69;3.37;;;;;;;15.26;77.11;100259.81;449217;117;922518;-78
2022/09/27 05:11:31;;;;;;;3.79;3.49;;;;;;;15.29;77.01;100259.30;452257;117;922789;-77
2022/09/27 05:12:36;;;;;;;4.59;3.48;;;;;;;15.31;76.95;100262.63;451017;117;923224;-78
2022/09/27 05:13:40;;;;;;;6.68;3.34;;;;;;;15.35;76.87;100257.45;454120;117;922502;-76
2022/09/27 05:14:43;;;;;;;3.98;3.65;;;;;;;15.36;76.75;100259.12;454030;116;922901;-76
2022/09/27 05:16:05;;;;;;;5.65;3.63;;;;;;;15.39;76.70;100262.18;450450;117;922575;-75
2022/09/27 05:17:17;;;;;;;3.63;3.17;;;;;;;15.40;76.75;100250.11;446270;118;922579;-76
2022/09/27 05:18:39;;;;;;;3.47;3.17;;;;;;;15.45;76.70;100260.33;449318;118;923612;-77